Time;durP1;ratioP1;P1;durP2;ratioP2;P2;SDS_P1;SDS_P2;PMS_P1;PMS_P2;Temp;Humidity;BMP_temperature;BMP_pressure;BME280_temperature;BME280_humidity;BME280_pressure;Samples;Min_cycle;Max_cycle;Signal;HPM_P1;HPM_P2
2023/03/15 00:01:11;;;;;;;6.47;1.43;;;3.60;99.90;;;;;;4917802;28;38409;-75
2023/03/15 00:03:38;;;;;;;3.97;1.73;;;3.50;99.90;;;;;;4907745;29;36170;-75
2023/03/15 00:06:05;;;;;;;5.37;1.60;;;3.50;99.90;;;;;;4918799;28;39090;-75
2023/03/15 00:08:33;;;;;;;3.70;1.30;;;3.50;99.90;;;;;;4916819;28;35244;-77
2023/03/15 00:11:00;;;;;;;3.43;1.30;;;3.60;99.90;;;;;;4907178;29;39658;-75
2023/03/15 00:13:27;;;;;;;2.93;1.40;;;3.60;99.90;;;;;;4904349;28;37106;-75
2023/03/15 00:15:56;;;;;;;3.83;1.20;;;3.60;99.90;;;;;;4927980;28;38622;-75
2023/03/15 00:18:22;;;;;;;6.20;1.80;;;3.70;99.90;;;;;;4930420;28;36599;-76
2023/03/15 00:20:48;;;;;;;4.13;2.20;;;3.90;99.90;;;;;;4908664;29;38669;-75
2023/03/15 00:23:15;;;;;;;4.77;2.20;;;4.00;99.90;;;;;;4922565;28;38633;-76
2023/03/15 00:25:47;;;;;;;5.43;1.73;;;4.00;99.90;;;;;;4909644;29;36975;-76
2023/03/15 00:28:14;;;;;;;6.87;1.47;;;4.00;99.90;;;;;;4923195;28;37214;-75
2023/03/15 00:30:41;;;;;;;6.87;2.30;;;4.00;99.90;;;;;;4926557;28;37177;-75
2023/03/15 00:33:08;;;;;;;4.57;1.10;;;3.90;99.90;;;;;;4929415;28;38541;-75
2023/03/15 00:35:38;;;;;;;10.07;1.30;;;3.80;99.90;;;;;;4923249;28;38296;-75
2023/03/15 00:38:05;;;;;;;12.53;1.13;;;3.70;99.90;;;;;;4912693;29;35918;-75
2023/03/15 00:40:32;;;;;;;4.77;1.10;;;3.60;99.90;;;;;;4915149;28;37777;-75
2023/03/15 03:29:15;;;;;;;1.77;0.70;;;3.40;99.90;;;;;;4966330;28;38321;-82
2023/03/15 03:31:42;;;;;;;2.97;0.97;;;3.40;99.90;;;;;;4971829;28;38430;-82
2023/03/15 03:34:14;;;;;;;5.87;0.70;;;3.40;99.90;;;;;;4932057;28;36375;-82
2023/03/15 03:36:47;;;;;;;5.13;0.73;;;3.40;99.90;;;;;;4957651;28;39064;-82
2023/03/15 03:39:31;;;;;;;7.73;0.80;;;3.40;99.90;;;;;;4947898;28;38357;-81
2023/03/15 03:42:01;;;;;;;6.57;0.80;;;3.30;99.90;;;;;;4957707;28;38865;-82
2023/03/15 03:44:29;;;;;;;3.27;0.67;;;3.40;99.90;;;;;;4930994;28;48729;-82
2023/03/15 03:47:22;;;;;;;6.60;1.00;;;3.30;99.90;;;;;;4963059;28;39530;-82
2023/03/15 03:49:48;;;;;;;;;;;3.20;99.90;;;;;;4957163;28;45961;-81
2023/03/15 03:52:16;;;;;;;3.33;0.80;;;3.20;99.90;;;;;;4957307;28;39707;-81
2023/03/15 03:54:45;;;;;;;6.17;1.57;;;3.20;99.90;;;;;;4974283;28;38175;-82
2023/03/15 03:57:46;;;;;;;4.43;0.70;;;3.30;99.90;;;;;;4959613;28;39211;-82
2023/03/15 04:00:17;;;;;;;3.23;1.47;;;3.50;99.90;;;;;;4900421;29;37977;-81
2023/03/15 04:02:52;;;;;;;4.57;0.87;;;3.50;99.90;;;;;;4909807;29;48416;-82
2023/03/15 04:05:22;;;;;;;3.33;1.03;;;3.60;99.90;;;;;;4916449;29;37563;-81
2023/03/15 04:07:49;;;;;;;4.80;0.90;;;3.60;99.90;;;;;;4930853;28;38902;-82
2023/03/15 04:10:18;;;;;;;5.33;1.27;;;3.60;99.90;;;;;;4903271;29;37461;-82
2023/03/15 04:12:53;;;;;;;4.17;1.63;;;3.60;99.90;;;;;;4911482;28;38316;-80
2023/03/15 04:15:35;;;;;;;3.53;1.50;;;3.60;99.90;;;;;;4884264;29;37993;-81
2023/03/15 04:18:09;;;;;;;4.33;1.67;;;3.50;99.90;;;;;;4878999;29;38531;-80
2023/03/15 04:20:38;;;;;;;3.37;1.57;;;3.40;99.90;;;;;;5067153;23;38335;-82
2023/03/15 04:23:10;;;;;;;4.30;1.50;;;3.40;99.90;;;;;;4954419;28;38389;-81
2023/03/15 04:25:41;;;;;;;6.50;1.00;;;3.40;99.90;;;;;;4959504;28;37403;-81
2023/03/15 04:28:11;;;;;;;3.60;1.20;;;3.30;99.90;;;;;;4955813;28;41658;-81
2023/03/15 04:31:09;;;;;;;1.63;1.30;;;3.30;99.90;;;;;;4917174;28;38764;-81
2023/03/15 04:33:39;;;;;;;2.70;0.80;;;3.30;99.90;;;;;;4923288;28;47974;-82
2023/03/15 04:36:09;;;;;;;6.07;1.30;;;3.30;99.90;;;;;;4955658;28;37966;-82
2023/03/15 04:38:38;;;;;;;6.27;1.60;;;3.30;99.90;;;;;;4964383;28;38851;-82
2023/03/15 04:41:09;;;;;;;3.47;1.07;;;3.40;99.90;;;;;;4981920;23;38149;-82
2023/03/15 04:43:40;;;;;;;7.30;1.20;;;3.40;99.90;;;;;;4941262;28;39504;-81
2023/03/15 04:46:14;;;;;;;3.97;1.03;;;3.30;99.90;;;;;;4964127;28;37785;-82
2023/03/15 04:48:52;;;;;;;3.88;1.15;;;3.30;99.90;;;;;;4956989;28;39352;-83
2023/03/15 04:51:21;;;;;;;4.13;1.17;;;3.20;99.90;;;;;;4957018;28;39842;-83
2023/03/15 04:53:51;;;;;;;6.33;1.17;;;3.00;99.90;;;;;;5056379;23;38416;-83
2023/03/15 04:56:51;;;;;;;4.20;0.97;;;2.80;99.90;;;;;;4951165;28;37905;-83
2023/03/15 04:59:38;;;;;;;3.27;1.07;;;2.70;99.90;;;;;;4927793;28;38923;-83
2023/03/15 05:02:14;;;;;;;4.17;1.60;;;2.60;99.90;;;;;;4940976;28;39981;-85
2023/03/15 05:04:51;;;;;;;6.33;2.00;;;2.60;99.90;;;;;;4980966;28;38792;-82
2023/03/15 05:07:25;;;;;;;3.57;2.23;;;2.60;99.90;;;;;;4945928;28;38650;-83
2023/03/15 05:10:09;;;;;;;6.30;2.13;;;2.60;99.90;;;;;;4978089;28;37784;-83
2023/03/15 05:12:41;;;;;;;5.17;2.50;;;2.70;99.90;;;;;;4961414;28;50220;-82
2023/03/15 05:15:09;;;;;;;6.70;2.23;;;2.70;99.90;;;;;;4967841;28;38376;-82
2023/03/15 05:17:39;;;;;;;5.13;2.57;;;2.70;99.90;;;;;;4965790;28;37671;-82
2023/03/15 05:20:11;;;;;;;6.70;3.03;;;2.80;99.90;;;;;;4956122;28;39529;-83
2023/03/15 05:22:45;;;;;;;7.23;3.87;;;2.80;99.90;;;;;;4939252;28;47586;-83
2023/03/15 05:25:21;;;;;;;5.83;3.83;;;2.80;99.90;;;;;;4984512;28;40460;-81
2023/03/15 05:27:59;;;;;;;8.73;3.90;;;2.80;99.90;;;;;;4986947;28;39768;-81
2023/03/15 05:30:27;;;;;;;5.73;3.80;;;2.80;99.90;;;;;;4948456;28;39330;-82
2023/03/15 05:33:03;;;;;;;8.88;3.38;;;2.80;99.90;;;;;;4966230;28;39508;-82
2023/03/15 05:35:45;;;;;;;7.30;3.57;;;2.70;99.90;;;;;;4967630;28;49949;-82
2023/03/15 05:38:25;;;;;;;6.13;4.90;;;2.50;99.90;;;;;;4951057;28;38516;-83
2023/03/15 05:41:00;;;;;;;8.83;4.50;;;2.50;99.90;;;;;;4975889;28;38348;-82
2023/03/15 05:43:34;;;;;;;6.20;4.10;;;2.40;99.90;;;;;;4965450;28;50155;-82
2023/03/15 05:46:04;;;;;;;7.47;5.60;;;2.20;99.90;;;;;;4956703;28;37904;-83
2023/03/15 05:48:43;;;;;;;9.77;5.33;;;2.20;99.90;;;;;;4964910;28;50007;-82
2023/03/15 05:51:29;;;;;;;13.57;6.03;;;2.10;99.90;;;;;;4945049;28;38446;-82
2023/03/15 05:53:56;;;;;;;7.93;5.53;;;1.90;99.90;;;;;;4977510;28;37587;-82
2023/03/15 05:56:26;;;;;;;7.97;5.83;;;1.90;99.90;;;;;;4949784;28;37353;-81
2023/03/15 05:59:04;;;;;;;10.03;5.83;;;1.80;99.90;;;;;;4960878;28;39157;-82
2023/03/15 06:01:35;;;;;;;8.43;6.53;;;1.80;99.90;;;;;;4951595;28;48919;-82
2023/03/15 06:04:09;;;;;;;11.23;7.20;;;1.70;99.90;;;;;;4962644;28;38829;-82
2023/03/15 06:06:41;;;;;;;9.90;6.80;;;1.60;99.90;;;;;;4967355;28;38580;-82
2023/03/15 06:09:07;;;;;;;12.20;7.00;;;1.60;99.90;;;;;;4955124;28;37453;-81
2023/03/15 06:12:03;;;;;;;;;;;;;;;;;;;;;
2023/03/15 06:14:39;;;;;;;12.17;8.50;;;1.50;99.90;;;;;;4896934;28;49333;-81
2023/03/15 06:17:06;;;;;;;13.87;8.43;;;1.50;99.90;;;;;;4979336;28;38712;-81
2023/03/15 06:19:42;;;;;;;11.80;8.13;;;1.40;99.90;;;;;;4989912;28;37623;-80
2023/03/15 06:22:09;;;;;;;11.67;8.50;;;1.30;99.90;;;;;;4977691;28;38690;-81
2023/03/15 06:24:37;;;;;;;9.23;7.23;;;1.20;99.90;;;;;;4985215;28;38509;-80
2023/03/15 06:27:03;;;;;;;14.90;9.07;;;1.30;99.90;;;;;;4967474;28;38666;-81
2023/03/15 06:29:30;;;;;;;14.17;9.27;;;1.40;99.90;;;;;;4980079;28;37647;-81
2023/03/15 06:31:57;;;;;;;11.37;7.80;;;1.30;99.90;;;;;;4962332;28;38493;-81
2023/03/15 06:34:23;;;;;;;12.00;7.27;;;1.30;99.90;;;;;;4960409;28;37356;-81
2023/03/15 06:36:51;;;;;;;10.90;8.17;;;1.20;99.90;;;;;;4956310;28;37294;-82
2023/03/15 06:39:19;;;;;;;12.67;7.70;;;1.20;99.90;;;;;;4974866;28;38717;-82
2023/03/15 06:41:57;;;;;;;14.37;8.53;;;1.30;99.90;;;;;;4965859;28;38434;-81
2023/03/15 06:44:32;;;;;;;13.37;8.17;;;1.20;99.90;;;;;;4961962;28;38229;-82
2023/03/15 06:47:08;;;;;;;11.77;8.00;;;1.30;99.90;;;;;;4987617;28;38827;-81
2023/03/15 06:49:43;;;;;;;14.33;8.90;;;1.30;99.90;;;;;;4955602;28;47789;-81
2023/03/15 06:52:11;;;;;;;12.70;8.23;;;1.30;99.90;;;;;;4955736;28;39000;-81
2023/03/15 06:54:41;;;;;;;20.10;10.47;;;1.30;99.90;;;;;;4949363;28;37835;-82
2023/03/15 06:57:15;;;;;;;13.17;9.03;;;1.40;99.90;;;;;;4962796;28;39623;-81
2023/03/15 06:59:46;;;;;;;15.57;7.83;;;1.40;99.90;;;;;;4946034;28;38018;-82
2023/03/15 07:02:16;;;;;;;12.57;7.97;;;1.50;99.90;;;;;;4951949;28;38674;-83
2023/03/15 07:04:54;;;;;;;10.73;7.10;;;1.70;99.90;;;;;;4956561;28;39924;-83
2023/03/15 07:07:36;;;;;;;13.63;7.07;;;1.80;99.90;;;;;;4958819;28;39195;-83
2023/03/15 07:10:08;;;;;;;13.27;7.90;;;1.90;99.90;;;;;;4948921;28;36918;-82
2023/03/15 07:12:39;;;;;;;10.57;6.37;;;1.90;99.90;;;;;;4914481;28;47861;-82
2023/03/15 07:15:27;;;;;;;14.70;7.70;;;2.00;99.90;;;;;;4955152;28;38091;-82
2023/03/15 07:17:58;;;;;;;11.00;7.63;;;2.00;99.90;;;;;;4939213;28;39005;-82
2023/03/15 07:20:34;;;;;;;13.52;7.68;;;2.00;99.90;;;;;;4928457;28;37952;-82
2023/03/15 07:23:17;;;;;;;11.85;8.43;;;2.10;99.90;;;;;;4957269;28;39496;-82
2023/03/15 07:25:46;;;;;;;8.40;6.80;;;2.10;99.90;;;;;;4910553;23;39743;-79
2023/03/15 07:28:12;;;;;;;16.47;8.93;;;2.20;99.90;;;;;;4894645;29;37432;-79
2023/03/15 07:30:38;;;;;;;16.40;5.03;;;2.20;99.90;;;;;;4898817;29;38139;-79
2023/03/15 07:33:06;;;;;;;9.80;5.10;;;2.20;99.90;;;;;;4904859;29;39003;-80
2023/03/15 07:35:32;;;;;;;11.20;4.80;;;2.20;99.90;;;;;;4911222;29;37642;-81
2023/03/15 07:37:58;;;;;;;13.03;5.03;;;2.20;99.90;;;;;;4917219;29;36603;-80
2023/03/15 07:40:25;;;;;;;17.83;5.03;;;2.20;99.90;;;;;;4895312;29;34916;-79
2023/03/15 07:42:51;;;;;;;14.90;4.87;;;2.20;99.90;;;;;;4892813;29;40653;-79
2023/03/15 07:45:17;;;;;;;9.63;4.57;;;2.40;99.90;;;;;;4906071;29;39126;-79
2023/03/15 07:47:43;;;;;;;10.53;5.13;;;2.40;99.90;;;;;;4908016;29;37361;-79
2023/03/15 07:50:11;;;;;;;14.93;5.83;;;2.50;99.90;;;;;;4908747;29;36196;-80
2023/03/15 07:52:37;;;;;;;11.80;4.87;;;2.50;99.90;;;;;;4925770;28;38940;-80
2023/03/15 07:55:07;;;;;;;15.03;6.10;;;2.60;99.90;;;;;;4911567;29;37868;-80
2023/03/15 07:57:33;;;;;;;12.80;5.03;;;2.60;99.90;;;;;;4923411;28;47768;-79
2023/03/15 07:59:59;;;;;;;15.93;5.17;;;2.60;99.90;;;;;;4892374;29;36156;-79
2023/03/15 08:02:28;;;;;;;17.87;5.57;;;2.70;99.90;;;;;;4898077;29;37408;-80
2023/03/15 08:04:54;;;;;;;15.10;4.77;;;2.70;99.90;;;;;;4899553;29;36974;-80
2023/03/15 08:07:20;;;;;;;21.03;5.83;;;2.80;99.90;;;;;;4905374;29;37966;-79
2023/03/15 08:09:47;;;;;;;12.27;4.10;;;2.90;99.90;;;;;;4901528;29;38022;-80
2023/03/15 08:12:13;;;;;;;11.00;4.37;;;3.00;99.90;;;;;;4902645;29;37622;-80
2023/03/15 08:14:39;;;;;;;13.47;4.40;;;3.00;99.90;;;;;;4894063;29;37624;-79
2023/03/15 08:17:05;;;;;;;13.97;5.37;;;3.00;99.90;;;;;;4895334;29;38221;-79
2023/03/15 08:19:35;;;;;;;17.53;3.83;;;3.10;99.90;;;;;;4899261;29;36388;-79
2023/03/15 08:25:25;;;;;;;8.33;3.73;;;3.40;99.90;;;;;;4924558;29;39920;-79
2023/03/15 08:27:51;;;;;;;15.03;5.83;;;3.40;99.90;;;;;;4918028;29;37228;-80
2023/03/15 08:30:19;;;;;;;15.37;4.07;;;3.30;99.90;;;;;;4904279;29;36741;-80
2023/03/15 08:32:48;;;;;;;17.40;3.30;;;3.40;99.90;;;;;;4912529;28;38244;-80
2023/03/15 08:35:16;;;;;;;11.30;3.13;;;3.40;99.90;;;;;;4925605;28;38790;-82
2023/03/15 08:37:51;;;;;;;22.30;3.13;;;3.40;99.90;;;;;;5059093;23;37936;-82
2023/03/15 08:40:54;;;;;;;13.67;4.40;;;3.50;99.90;;;;;;4947036;28;38589;-81
2023/03/15 08:43:46;;;;;;;12.60;2.60;;;3.50;99.90;;;;;;4930296;28;40089;-81
2023/03/15 08:46:36;;;;;;;7.83;2.57;;;3.70;99.90;;;;;;4944406;28;37771;-81
2023/03/15 08:53:08;;;;;;;15.37;3.40;;;3.70;99.90;;;;;;4941854;28;50684;-81
2023/03/15 08:55:36;;;;;;;14.70;3.20;;;3.90;99.90;;;;;;4968418;28;46760;-81
2023/03/15 09:10:17;;;;;;;7.10;1.70;;;4.60;99.90;;;;;;5302889;23;20043;-82
2023/03/15 09:16:17;;;;;;;10.30;2.53;;;4.60;99.90;;;;;;5500275;23;20060;-81
2023/03/15 09:38:10;;;;;;;8.03;1.50;;;5.50;99.90;;;;;;5744001;23;20044;-81
2023/03/15 09:58:51;;;;;;;5.70;0.77;;;6.40;99.90;;;;;;5799571;23;20049;-80
2023/03/15 11:11:02;;;;;;;10.45;1.05;;;8.00;99.90;;;;;;6053458;23;19921;-82
2023/03/15 11:42:13;;;;;;;3.67;0.90;;;9.10;99.90;;;;;;5988614;23;20020;31
2023/03/15 11:50:45;;;;;;;2.42;0.52;;;9.30;99.90;;;;;;5885746;23;20024;-82
2023/03/15 11:53:31;;;;;;;6.87;1.33;;;9.50;99.90;;;;;;4955466;28;38910;-81
2023/03/15 11:56:30;;;;;;;3.10;0.80;;;9.20;99.90;;;;;;4919673;28;38405;-81
2023/03/15 11:59:15;;;;;;;4.80;0.70;;;9.00;99.90;;;;;;4962358;28;37995;-82
2023/03/15 12:02:15;;;;;;;5.97;0.93;;;8.90;99.90;;;;;;4954293;28;47338;-83
2023/03/15 12:05:05;;;;;;;5.67;0.60;;;9.00;99.90;;;;;;4941771;28;50152;-82
2023/03/15 12:07:37;;;;;;;3.80;0.60;;;9.00;99.90;;;;;;4961879;28;47603;-83
2023/03/15 12:10:42;;;;;;;3.07;0.67;;;9.00;99.90;;;;;;4962059;28;38202;-82
2023/03/15 12:13:25;;;;;;;3.70;0.77;;;9.00;99.90;;;;;;4893576;29;36797;-83
2023/03/15 12:15:52;;;;;;;5.13;0.93;;;9.40;99.90;;;;;;4958343;28;38614;-81
2023/03/15 12:18:30;;;;;;;6.40;0.70;;;9.60;99.90;;;;;;4949760;28;37571;-82
2023/03/15 12:21:11;;;;;;;7.73;0.90;;;9.90;99.90;;;;;;4941972;28;38771;-79
2023/03/15 12:23:45;;;;;;;3.17;1.10;;;10.20;99.90;;;;;;4942284;28;46935;-79
2023/03/15 12:26:48;;;;;;;1.43;0.70;;;10.10;99.90;;;;;;4941666;28;37800;-79
2023/03/15 12:29:22;;;;;;;3.10;0.90;;;9.90;99.90;;;;;;4951358;28;38197;-79
2023/03/15 12:32:02;;;;;;;4.87;0.80;;;10.00;99.90;;;;;;4953540;28;37224;-79
2023/03/15 12:34:52;;;;;;;7.10;1.97;;;10.30;99.90;;;;;;4952392;28;47044;-79
2023/03/15 12:37:23;;;;;;;4.80;1.00;;;10.10;99.90;;;;;;4955815;28;38046;-81
2023/03/15 12:40:11;;;;;;;8.03;1.30;;;9.30;99.90;;;;;;4941883;28;37312;-80
2023/03/15 12:42:37;;;;;;;4.67;0.50;;;9.20;99.90;;;;;;4928576;28;48398;-81
2023/03/15 12:45:26;;;;;;;1.83;0.60;;;9.70;99.90;;;;;;4932713;28;35642;-80
2023/03/15 12:47:53;;;;;;;2.40;0.63;;;9.90;99.90;;;;;;4922022;28;48391;-77
2023/03/15 12:50:43;;;;;;;3.00;0.65;;;10.10;99.90;;;;;;4934788;28;38513;-80
2023/03/15 12:53:18;;;;;;;3.38;0.70;;;10.50;99.90;;;;;;4945163;28;37308;-80
2023/03/15 12:55:45;;;;;;;3.22;0.65;;;10.10;99.90;;;;;;4956816;28;36293;-80
2023/03/15 12:58:12;;;;;;;5.43;1.00;;;9.60;99.90;;;;;;4955099;28;39490;-79
2023/03/15 13:00:42;;;;;;;3.08;0.70;;;9.50;99.90;;;;;;4957944;28;38478;-80
2023/03/15 13:03:18;;;;;;;3.55;0.70;;;9.30;99.90;;;;;;4960702;28;38061;-80
2023/03/15 13:06:13;;;;;;;2.88;0.70;;;9.40;99.90;;;;;;4951993;28;38521;-79
2023/03/15 13:09:07;;;;;;;4.00;0.40;;;9.40;99.90;;;;;;4950917;28;48370;-81
2023/03/15 13:11:59;;;;;;;3.47;0.40;;;9.30;99.90;;;;;;4950917;28;49821;-79
2023/03/15 13:14:30;;;;;;;3.63;0.57;;;9.60;99.90;;;;;;4945815;28;37503;-80
2023/03/15 13:17:25;;;;;;;3.67;0.60;;;9.60;99.90;;;;;;4945977;28;38111;-79
2023/03/15 13:20:30;;;;;;;5.35;0.88;;;9.60;99.90;;;;;;4938013;28;48291;-79
2023/03/15 13:23:13;;;;;;;2.28;0.50;;;9.80;99.90;;;;;;4925384;28;48581;-78
2023/03/15 13:26:01;;;;;;;2.50;0.70;;;9.90;99.90;;;;;;4935021;28;47221;-78
2023/03/15 13:29:07;;;;;;;3.45;1.23;;;9.80;99.90;;;;;;4937818;28;48590;-79
2023/03/15 13:31:34;;;;;;;3.40;0.80;;;9.90;99.90;;;;;;4929985;28;48349;-78
2023/03/15 13:34:20;;;;;;;3.65;0.45;;;9.50;99.90;;;;;;4933293;28;36913;-79
2023/03/15 13:36:56;;;;;;;1.90;0.52;;;9.50;99.90;;;;;;4940215;28;47327;-80
2023/03/15 13:39:27;;;;;;;5.95;0.63;;;9.20;99.90;;;;;;4935015;28;36356;-81
2023/03/15 13:42:06;;;;;;;3.03;0.50;;;9.20;99.90;;;;;;4938188;28;37816;-79
2023/03/15 13:44:33;;;;;;;3.30;0.90;;;9.40;99.90;;;;;;4931555;28;47119;-79
2023/03/15 13:46:59;;;;;;;2.97;0.73;;;9.90;99.90;;;;;;4931296;28;37376;-79
2023/03/15 13:49:33;;;;;;;2.50;0.50;;;10.20;99.90;;;;;;4936090;28;37474;-79
2023/03/15 13:52:05;;;;;;;3.53;0.40;;;9.60;99.90;;;;;;4930064;28;37733;-78
2023/03/15 13:54:35;;;;;;;1.95;0.57;;;9.60;99.90;;;;;;4932434;28;47268;-78
2023/03/15 13:57:10;;;;;;;1.55;0.50;;;9.50;99.90;;;;;;4932348;28;38223;-78
2023/03/15 13:59:42;;;;;;;3.20;0.50;;;9.40;99.90;;;;;;4928980;28;47325;-79
2023/03/15 14:02:44;;;;;;;3.28;0.32;;;9.70;99.90;;;;;;4933404;28;39966;-80
2023/03/15 14:05:14;;;;;;;3.13;0.47;;;9.50;99.90;;;;;;4917322;28;37584;-79
2023/03/15 14:07:47;;;;;;;2.40;0.40;;;9.50;99.90;;;;;;4929313;28;37652;-79
2023/03/15 14:10:29;;;;;;;1.42;0.32;;;9.70;99.90;;;;;;4931005;28;36368;-78
2023/03/15 14:12:58;;;;;;;2.33;0.45;;;10.00;99.90;;;;;;4930759;28;39166;-80
2023/03/15 14:15:35;;;;;;;2.30;0.47;;;9.90;99.90;;;;;;4931409;28;37997;-79
2023/03/15 14:18:15;;;;;;;2.30;0.50;;;9.70;99.90;;;;;;4933531;28;39809;-79
2023/03/15 14:21:01;;;;;;;1.85;0.55;;;9.70;99.90;;;;;;4924926;28;36146;-79
2023/03/15 14:23:29;;;;;;;2.78;1.30;;;9.90;99.90;;;;;;4934623;28;46820;-79
2023/03/15 14:26:17;;;;;;;3.88;0.60;;;9.90;99.90;;;;;;4931412;28;37698;-78
2023/03/15 14:29:06;;;;;;;3.00;0.43;;;9.50;99.90;;;;;;4932051;28;48445;-79
2023/03/15 14:31:39;;;;;;;3.72;0.40;;;9.70;99.90;;;;;;4930025;28;46975;-79
2023/03/15 14:34:15;;;;;;;0.98;0.28;;;10.00;99.90;;;;;;4927050;28;37406;-81
2023/03/15 14:36:43;;;;;;;2.22;0.75;;;10.20;99.90;;;;;;4929619;28;38712;-78
2023/03/15 14:39:23;;;;;;;4.95;0.68;;;10.30;99.90;;;;;;4928444;28;35813;-79
2023/03/15 14:41:49;;;;;;;3.03;0.85;;;10.10;99.90;;;;;;4927422;28;37286;-78
2023/03/15 14:44:15;;;;;;;1.08;0.50;;;10.10;99.90;;;;;;4925563;28;38496;-79
2023/03/15 14:46:41;;;;;;;1.15;0.30;;;9.90;99.90;;;;;;4926961;28;38565;-79
2023/03/15 14:49:20;;;;;;;1.20;0.47;;;9.90;99.90;;;;;;4929470;28;37308;-79
2023/03/15 14:51:56;;;;;;;1.38;0.75;;;9.90;99.90;;;;;;4931186;28;37385;-79
2023/03/15 14:54:22;;;;;;;3.05;0.60;;;10.10;99.90;;;;;;4937006;28;38628;-79
2023/03/15 14:56:48;;;;;;;2.00;0.70;;;10.10;99.90;;;;;;4935862;28;39757;-78
2023/03/15 14:59:14;;;;;;;2.58;0.63;;;9.90;99.90;;;;;;4937297;28;36823;-78
2023/03/15 15:01:48;;;;;;;4.32;0.90;;;9.90;99.90;;;;;;4933515;28;36229;-79
2023/03/15 15:04:14;;;;;;;1.93;0.70;;;9.50;99.90;;;;;;4943567;28;38952;-79
2023/03/15 15:06:49;;;;;;;1.80;0.77;;;9.60;99.90;;;;;;4941722;28;37149;-80
2023/03/15 15:09:19;;;;;;;2.75;0.80;;;9.60;99.90;;;;;;4940873;28;37282;-79
2023/03/15 15:11:45;;;;;;;2.60;0.90;;;9.50;99.90;;;;;;4940603;28;36537;-79
2023/03/15 15:14:14;;;;;;;6.25;0.98;;;9.70;99.90;;;;;;4939011;28;38883;-80
2023/03/15 15:16:42;;;;;;;4.13;1.30;;;9.90;99.90;;;;;;4940172;28;20104;-79
2023/03/15 15:19:09;;;;;;;1.67;1.00;;;10.10;99.90;;;;;;4942277;28;37070;-80
2023/03/15 15:21:36;;;;;;;3.30;1.50;;;10.00;99.90;;;;;;4939573;28;35920;-80
2023/03/15 15:24:05;;;;;;;2.80;1.02;;;10.00;99.90;;;;;;4943092;28;40437;-81
2023/03/15 15:26:33;;;;;;;2.35;1.33;;;10.10;99.90;;;;;;4942449;28;37354;-79
2023/03/15 15:28:59;;;;;;;2.33;1.40;;;10.20;99.90;;;;;;4942608;28;37244;-79
2023/03/15 15:31:27;;;;;;;2.25;1.20;;;10.10;99.90;;;;;;4940897;28;36735;-79
2023/03/15 15:33:55;;;;;;;5.28;1.42;;;10.00;99.90;;;;;;4942322;28;38940;-80
2023/03/15 15:36:24;;;;;;;3.75;1.45;;;9.90;99.90;;;;;;4948361;28;38133;-79
2023/03/15 15:38:52;;;;;;;3.28;1.30;;;9.70;99.90;;;;;;4966848;28;38151;-82
2023/03/15 15:41:27;;;;;;;3.47;1.58;;;9.30;99.90;;;;;;4946849;28;35904;-80
2023/03/15 15:43:53;;;;;;;6.10;1.87;;;9.40;99.90;;;;;;4945404;28;39038;-80
2023/03/15 15:46:19;;;;;;;1.73;1.30;;;9.50;99.90;;;;;;4941109;28;37399;-80
2023/03/15 15:48:45;;;;;;;3.07;1.30;;;9.50;99.90;;;;;;4935234;28;37287;-79
2023/03/15 15:51:16;;;;;;;3.33;1.27;;;9.60;99.90;;;;;;4935664;28;37483;-80
2023/03/15 15:53:42;;;;;;;5.70;1.70;;;9.30;99.90;;;;;;4936608;28;39044;-79
2023/03/15 15:56:12;;;;;;;3.73;1.37;;;9.30;99.90;;;;;;4935546;28;37181;-80
2023/03/15 15:58:43;;;;;;;5.63;2.30;;;9.40;99.90;;;;;;4937495;28;37115;-80
2023/03/15 16:01:12;;;;;;;5.77;1.70;;;9.40;99.90;;;;;;4951462;28;38196;-80
2023/03/15 16:03:38;;;;;;;3.83;2.10;;;9.40;99.90;;;;;;4933933;28;37418;-80
2023/03/15 16:06:05;;;;;;;3.87;1.80;;;9.50;99.90;;;;;;4937579;28;37666;-80
2023/03/15 16:08:37;;;;;;;5.37;2.10;;;9.30;99.90;;;;;;4960320;28;39139;-81
2023/03/15 16:11:04;;;;;;;3.87;2.47;;;9.10;99.90;;;;;;4937860;28;37216;-80
2023/03/15 16:13:31;;;;;;;4.90;1.83;;;9.20;99.90;;;;;;4936678;28;37777;-80
2023/03/15 16:15:57;;;;;;;4.03;2.00;;;9.20;99.90;;;;;;4932449;28;37535;-79
2023/03/15 16:18:23;;;;;;;4.27;2.13;;;9.10;99.90;;;;;;4927728;28;37742;-79
2023/03/15 16:20:49;;;;;;;3.87;2.20;;;9.00;99.90;;;;;;4933202;28;35993;-80
2023/03/15 16:23:20;;;;;;;5.63;2.27;;;8.80;99.90;;;;;;4930017;28;38275;-79
2023/03/15 16:25:55;;;;;;;3.40;2.40;;;8.70;99.90;;;;;;4943060;28;37178;-79
2023/03/15 16:28:22;;;;;;;4.33;2.77;;;8.80;99.90;;;;;;4942164;28;36824;-79
2023/03/15 16:30:48;;;;;;;3.83;2.70;;;8.80;99.90;;;;;;4949132;28;36300;-79
2023/03/15 16:33:18;;;;;;;3.43;2.40;;;8.70;99.90;;;;;;4965861;28;39090;-79
2023/03/15 16:35:47;;;;;;;9.73;3.10;;;8.70;99.90;;;;;;4949113;28;37865;-79
2023/03/15 16:38:16;;;;;;;5.93;3.03;;;8.70;99.90;;;;;;4945288;28;37347;-79
2023/03/15 16:40:44;;;;;;;4.23;3.00;;;8.60;99.90;;;;;;4950748;28;37459;-79
2023/03/15 16:43:12;;;;;;;4.27;2.80;;;8.60;99.90;;;;;;4938944;28;39079;-78
2023/03/15 16:45:38;;;;;;;3.07;2.57;;;8.60;99.90;;;;;;4951125;28;37255;-79
2023/03/15 16:48:04;;;;;;;4.27;2.87;;;8.50;99.90;;;;;;4943838;28;37665;-79
2023/03/15 16:50:32;;;;;;;7.37;2.93;;;8.50;99.90;;;;;;4951516;28;36245;-79
2023/03/15 16:53:01;;;;;;;6.70;3.30;;;8.60;99.90;;;;;;4949076;28;38797;-79
2023/03/15 16:55:31;;;;;;;4.00;3.17;;;8.50;99.90;;;;;;4951093;28;47440;-79
2023/03/15 16:58:00;;;;;;;5.43;2.83;;;8.50;99.90;;;;;;4946849;28;37026;-79
2023/03/15 17:00:26;;;;;;;6.40;2.87;;;8.40;99.90;;;;;;4946963;28;36031;-79
2023/03/15 17:02:52;;;;;;;6.37;2.80;;;8.40;99.90;;;;;;4947526;28;37902;-80
2023/03/15 17:05:19;;;;;;;6.33;3.43;;;8.30;99.90;;;;;;4961614;28;37442;-81
2023/03/15 17:07:48;;;;;;;5.57;3.20;;;8.30;99.90;;;;;;4954831;28;39444;-79
2023/03/15 17:10:22;;;;;;;3.50;2.97;;;8.20;99.90;;;;;;4979507;28;38165;-81
2023/03/15 17:12:49;;;;;;;7.13;3.87;;;8.20;99.90;;;;;;4964600;28;37489;-80
2023/03/15 17:15:19;;;;;;;5.53;3.33;;;8.20;99.90;;;;;;4959847;28;37303;-78
2023/03/15 17:17:46;;;;;;;6.23;3.70;;;8.10;99.90;;;;;;4972316;28;38817;-79
2023/03/15 17:20:13;;;;;;;5.20;4.03;;;8.10;99.90;;;;;;4954567;28;37122;-78
2023/03/15 17:22:43;;;;;;;7.43;4.23;;;8.10;99.90;;;;;;4947163;28;39272;-78
2023/03/15 17:25:09;;;;;;;7.07;3.80;;;8.10;99.90;;;;;;4953319;28;38883;-79
2023/03/15 17:27:39;;;;;;;7.57;3.97;;;8.00;99.90;;;;;;4951425;28;39318;-78
2023/03/15 17:30:26;;;;;;;5.50;3.53;;;8.00;99.90;;;;;;4946680;28;36999;-78
2023/03/15 17:32:52;;;;;;;5.83;3.80;;;8.00;99.90;;;;;;4950922;28;47020;-79
2023/03/15 17:35:21;;;;;;;6.37;3.60;;;7.90;99.90;;;;;;4953417;28;37593;-79
2023/03/15 17:37:47;;;;;;;6.13;3.87;;;7.90;99.90;;;;;;4960755;28;37771;-78
2023/03/15 17:40:34;;;;;;;5.67;3.57;;;7.90;99.90;;;;;;4945093;28;35579;-79
2023/03/15 17:43:02;;;;;;;10.33;3.80;;;7.90;99.90;;;;;;4948157;28;39235;-78
2023/03/15 17:45:33;;;;;;;6.83;3.80;;;7.90;99.90;;;;;;4950119;28;47296;-79
2023/03/15 17:48:00;;;;;;;6.90;3.57;;;7.90;99.90;;;;;;4970366;28;38187;-78
2023/03/15 17:50:29;;;;;;;9.37;4.47;;;8.00;99.90;;;;;;4969808;28;47683;-78
2023/03/15 17:52:57;;;;;;;9.97;4.40;;;7.80;99.90;;;;;;4952366;28;38730;-79
2023/03/15 17:55:25;;;;;;;6.37;3.90;;;7.80;99.90;;;;;;4953212;28;37652;-78
2023/03/15 17:57:52;;;;;;;11.13;6.03;;;7.80;99.90;;;;;;4965656;28;38172;-78
2023/03/15 18:00:19;;;;;;;11.50;6.80;;;7.70;99.90;;;;;;4941680;28;36506;-78
2023/03/15 18:02:47;;;;;;;9.63;7.83;;;7.70;99.90;;;;;;4969901;28;48798;-78
2023/03/15 18:05:22;;;;;;;8.90;5.60;;;7.70;99.90;;;;;;4952103;28;37270;-78
2023/03/15 18:07:49;;;;;;;7.73;4.77;;;7.70;99.90;;;;;;4953105;28;36975;-78
2023/03/15 18:10:19;;;;;;;6.33;4.20;;;7.70;99.90;;;;;;4950183;28;37443;-79
2023/03/15 18:12:48;;;;;;;7.03;3.33;;;7.70;99.90;;;;;;4953367;28;38637;-79
2023/03/15 18:15:19;;;;;;;5.30;3.40;;;7.60;99.90;;;;;;4953486;28;37509;-78
2023/03/15 18:17:46;;;;;;;4.53;3.60;;;7.70;99.90;;;;;;4966488;28;37711;-78
2023/03/15 18:20:14;;;;;;;6.10;3.97;;;7.70;99.90;;;;;;4970267;28;36935;-78
2023/03/15 18:22:41;;;;;;;4.87;3.47;;;7.60;99.90;;;;;;4944245;28;38725;-78
2023/03/15 18:25:20;;;;;;;4.10;3.70;;;7.60;99.90;;;;;;4947313;28;38508;-78
2023/03/15 18:27:47;;;;;;;6.40;3.60;;;7.60;99.90;;;;;;4947073;28;36890;-78
2023/03/15 18:30:16;;;;;;;4.93;3.37;;;7.60;99.90;;;;;;4961457;28;37603;-78
2023/03/15 18:32:42;;;;;;;5.90;2.90;;;7.50;99.90;;;;;;4952435;28;38009;-78
2023/03/15 18:35:17;;;;;;;6.07;3.30;;;7.60;99.90;;;;;;4968584;28;38329;-78
2023/03/15 18:37:44;;;;;;;5.87;3.07;;;7.60;99.90;;;;;;4945224;28;37162;-78
2023/03/15 18:40:12;;;;;;;6.87;3.17;;;7.60;99.90;;;;;;4950337;28;35799;-78
2023/03/15 18:42:40;;;;;;;7.70;2.90;;;7.50;99.90;;;;;;4952462;28;37822;-79
2023/03/15 18:45:09;;;;;;;6.53;2.80;;;7.50;99.90;;;;;;4951626;28;37463;-78
2023/03/15 18:47:35;;;;;;;5.97;2.77;;;7.50;99.90;;;;;;4960938;28;37144;-78
2023/03/15 18:50:03;;;;;;;4.30;2.80;;;7.50;99.90;;;;;;4949550;28;35736;-78
2023/03/15 18:52:30;;;;;;;4.23;2.60;;;7.60;99.90;;;;;;4950697;28;37705;-77
2023/03/15 18:54:57;;;;;;;7.47;2.83;;;7.50;99.90;;;;;;4951890;28;37535;-78